sensor_id;sensor_type;location;lat;lon;timestamp;P1;durP1;ratioP1;P2;durP2;ratioP2
52124;SDS011;38119;52.710;6.398;2023-03-20T00:00:24;20.50;;;9.27;;
52124;SDS011;38119;52.710;6.398;2023-03-20T00:02:55;24.23;;;9.77;;
52124;SDS011;38119;52.710;6.398;2023-03-20T00:05:22;25.20;;;10.30;;
52124;SDS011;38119;52.710;6.398;2023-03-20T00:07:50;19.15;;;10.15;;
52124;SDS011;38119;52.710;6.398;2023-03-20T00:10:17;21.50;;;10.20;;
52124;SDS011;38119;52.710;6.398;2023-03-20T00:12:44;18.92;;;9.32;;
52124;SDS011;38119;52.710;6.398;2023-03-20T00:15:21;20.25;;;9.65;;
52124;SDS011;38119;52.710;6.398;2023-03-20T00:17:56;20.52;;;9.18;;
52124;SDS011;38119;52.710;6.398;2023-03-20T00:20:22;19.75;;;9.50;;
52124;SDS011;38119;52.710;6.398;2023-03-20T00:22:48;15.65;;;8.80;;
52124;SDS011;38119;52.710;6.398;2023-03-20T00:25:23;19.35;;;7.88;;
52124;SDS011;38119;52.710;6.398;2023-03-20T00:27:50;19.17;;;7.88;;
52124;SDS011;38119;52.710;6.398;2023-03-20T00:32:48;18.85;;;7.75;;
52124;SDS011;38119;52.710;6.398;2023-03-20T00:35:26;14.85;;;7.25;;
52124;SDS011;38119;52.710;6.398;2023-03-20T00:37:54;16.73;;;6.97;;
52124;SDS011;38119;52.710;6.398;2023-03-20T00:40:21;16.80;;;7.10;;
52124;SDS011;38119;52.710;6.398;2023-03-20T00:42:55;12.98;;;6.22;;
52124;SDS011;38119;52.710;6.398;2023-03-20T00:45:27;15.45;;;6.65;;
52124;SDS011;38119;52.710;6.398;2023-03-20T00:47:54;12.52;;;6.50;;
52124;SDS011;38119;52.710;6.398;2023-03-20T00:50:28;15.50;;;6.28;;
52124;SDS011;38119;52.710;6.398;2023-03-20T00:52:55;16.40;;;6.90;;
52124;SDS011;38119;52.710;6.398;2023-03-20T00:55:22;15.45;;;6.60;;
52124;SDS011;38119;52.710;6.398;2023-03-20T00:57:52;15.95;;;7.15;;
52124;SDS011;38119;52.710;6.398;2023-03-20T01:02:57;11.52;;;6.65;;
52124;SDS011;38119;52.710;6.398;2023-03-20T01:05:27;12.45;;;6.30;;
52124;SDS011;38119;52.710;6.398;2023-03-20T01:07:53;14.88;;;6.03;;
52124;SDS011;38119;52.710;6.398;2023-03-20T01:10:19;12.43;;;6.38;;
52124;SDS011;38119;52.710;6.398;2023-03-20T01:12:45;10.68;;;5.85;;
52124;SDS011;38119;52.710;6.398;2023-03-20T01:15:19;12.10;;;6.70;;
52124;SDS011;38119;52.710;6.398;2023-03-20T01:17:47;13.90;;;6.40;;
52124;SDS011;38119;52.710;6.398;2023-03-20T01:20:14;12.95;;;6.35;;
52124;SDS011;38119;52.710;6.398;2023-03-20T01:22:41;14.32;;;6.65;;
52124;SDS011;38119;52.710;6.398;2023-03-20T01:25:07;12.95;;;6.63;;
52124;SDS011;38119;52.710;6.398;2023-03-20T01:27:33;15.93;;;6.97;;
52124;SDS011;38119;52.710;6.398;2023-03-20T01:29:59;19.67;;;7.93;;
52124;SDS011;38119;52.710;6.398;2023-03-20T01:32:25;18.95;;;7.95;;
52124;SDS011;38119;52.710;6.398;2023-03-20T01:34:50;16.45;;;7.53;;
52124;SDS011;38119;52.710;6.398;2023-03-20T01:37:20;19.38;;;8.55;;
52124;SDS011;38119;52.710;6.398;2023-03-20T01:39:48;15.90;;;7.93;;
52124;SDS011;38119;52.710;6.398;2023-03-20T01:42:14;20.08;;;9.68;;
52124;SDS011;38119;52.710;6.398;2023-03-20T01:44:41;17.35;;;8.15;;
52124;SDS011;38119;52.710;6.398;2023-03-20T01:47:17;19.15;;;9.05;;
52124;SDS011;38119;52.710;6.398;2023-03-20T01:52:49;19.05;;;9.57;;
52124;SDS011;38119;52.710;6.398;2023-03-20T01:55:22;21.27;;;10.10;;
52124;SDS011;38119;52.710;6.398;2023-03-20T01:57:49;19.17;;;9.68;;
52124;SDS011;38119;52.710;6.398;2023-03-20T02:00:16;18.42;;;9.52;;
52124;SDS011;38119;52.710;6.398;2023-03-20T02:02:45;19.02;;;10.32;;
52124;SDS011;38119;52.710;6.398;2023-03-20T02:05:12;25.13;;;11.05;;
52124;SDS011;38119;52.710;6.398;2023-03-20T02:07:41;20.02;;;10.57;;
52124;SDS011;38119;52.710;6.398;2023-03-20T02:10:13;23.80;;;10.93;;
52124;SDS011;38119;52.710;6.398;2023-03-20T02:12:41;25.10;;;10.75;;
52124;SDS011;38119;52.710;6.398;2023-03-20T02:15:08;25.30;;;12.07;;
52124;SDS011;38119;52.710;6.398;2023-03-20T02:17:35;26.55;;;12.75;;
52124;SDS011;38119;52.710;6.398;2023-03-20T02:20:13;22.88;;;12.10;;
52124;SDS011;38119;52.710;6.398;2023-03-20T02:23:10;22.77;;;12.60;;
52124;SDS011;38119;52.710;6.398;2023-03-20T02:26:06;26.15;;;13.40;;
52124;SDS011;38119;52.710;6.398;2023-03-20T02:37:38;31.13;;;13.68;;
52124;SDS011;38119;52.710;6.398;2023-03-20T02:43:10;25.58;;;12.85;;
52124;SDS011;38119;52.710;6.398;2023-03-20T02:49:14;25.02;;;12.90;;
52124;SDS011;38119;52.710;6.398;2023-03-20T02:51:47;27.58;;;12.90;;
52124;SDS011;38119;52.710;6.398;2023-03-20T02:54:28;24.33;;;12.50;;
52124;SDS011;38119;52.710;6.398;2023-03-20T02:57:54;22.40;;;10.68;;
52124;SDS011;38119;52.710;6.398;2023-03-20T03:00:47;19.67;;;10.75;;
52124;SDS011;38119;52.710;6.398;2023-03-20T03:03:40;20.17;;;10.07;;
52124;SDS011;38119;52.710;6.398;2023-03-20T03:05:50;23.50;;;9.93;;
52124;SDS011;38119;52.710;6.398;2023-03-20T03:08:24;19.63;;;9.68;;
52124;SDS011;38119;52.710;6.398;2023-03-20T03:10:59;17.60;;;9.25;;
52124;SDS011;38119;52.710;6.398;2023-03-20T03:13:32;17.05;;;8.90;;
52124;SDS011;38119;52.710;6.398;2023-03-20T03:16:05;19.48;;;9.38;;
52124;SDS011;38119;52.710;6.398;2023-03-20T03:18:39;17.23;;;8.07;;
52124;SDS011;38119;52.710;6.398;2023-03-20T03:21:06;18.77;;;8.30;;
52124;SDS011;38119;52.710;6.398;2023-03-20T03:23:44;16.73;;;8.02;;
52124;SDS011;38119;52.710;6.398;2023-03-20T03:26:13;17.77;;;8.43;;
52124;SDS011;38119;52.710;6.398;2023-03-20T03:29:02;15.57;;;7.88;;
52124;SDS011;38119;52.710;6.398;2023-03-20T03:31:35;16.27;;;8.00;;
52124;SDS011;38119;52.710;6.398;2023-03-20T03:34:02;14.77;;;7.78;;
52124;SDS011;38119;52.710;6.398;2023-03-20T03:47:53;16.38;;;7.32;;
52124;SDS011;38119;52.710;6.398;2023-03-20T03:50:34;13.13;;;6.65;;
52124;SDS011;38119;52.710;6.398;2023-03-20T03:53:07;14.85;;;6.82;;
52124;SDS011;38119;52.710;6.398;2023-03-20T03:55:38;14.95;;;6.82;;
52124;SDS011;38119;52.710;6.398;2023-03-20T03:58:14;17.02;;;7.05;;
52124;SDS011;38119;52.710;6.398;2023-03-20T04:00:44;12.57;;;6.85;;
52124;SDS011;38119;52.710;6.398;2023-03-20T04:03:14;12.25;;;6.78;;
52124;SDS011;38119;52.710;6.398;2023-03-20T04:05:42;13.82;;;6.60;;
52124;SDS011;38119;52.710;6.398;2023-03-20T04:08:10;18.90;;;7.40;;
52124;SDS011;38119;52.710;6.398;2023-03-20T04:10:35;16.17;;;7.32;;
52124;SDS011;38119;52.710;6.398;2023-03-20T04:13:01;14.18;;;7.10;;
52124;SDS011;38119;52.710;6.398;2023-03-20T04:15:27;13.90;;;6.57;;
52124;SDS011;38119;52.710;6.398;2023-03-20T04:17:53;16.25;;;7.35;;
52124;SDS011;38119;52.710;6.398;2023-03-20T04:20:18;17.98;;;7.22;;
52124;SDS011;38119;52.710;6.398;2023-03-20T04:22:44;20.75;;;8.38;;
52124;SDS011;38119;52.710;6.398;2023-03-20T04:25:15;11.85;;;7.45;;
52124;SDS011;38119;52.710;6.398;2023-03-20T04:27:45;16.17;;;8.55;;
52124;SDS011;38119;52.710;6.398;2023-03-20T04:30:11;18.23;;;8.50;;
52124;SDS011;38119;52.710;6.398;2023-03-20T04:32:37;20.08;;;9.18;;
52124;SDS011;38119;52.710;6.398;2023-03-20T04:35:03;20.58;;;10.07;;
52124;SDS011;38119;52.710;6.398;2023-03-20T04:37:30;17.20;;;9.95;;
52124;SDS011;38119;52.710;6.398;2023-03-20T04:39:55;18.17;;;9.88;;
52124;SDS011;38119;52.710;6.398;2023-03-20T04:42:21;24.65;;;10.60;;
52124;SDS011;38119;52.710;6.398;2023-03-20T04:44:49;18.80;;;9.73;;
52124;SDS011;38119;52.710;6.398;2023-03-20T04:47:15;21.55;;;10.68;;
52124;SDS011;38119;52.710;6.398;2023-03-20T04:49:40;21.58;;;10.23;;
52124;SDS011;38119;52.710;6.398;2023-03-20T04:52:10;19.60;;;10.95;;
52124;SDS011;38119;52.710;6.398;2023-03-20T04:54:35;22.85;;;11.05;;
52124;SDS011;38119;52.710;6.398;2023-03-20T04:57:01;25.88;;;11.20;;
52124;SDS011;38119;52.710;6.398;2023-03-20T04:59:26;21.77;;;11.07;;
52124;SDS011;38119;52.710;6.398;2023-03-20T05:01:52;18.63;;;10.57;;
52124;SDS011;38119;52.710;6.398;2023-03-20T05:04:18;19.55;;;11.43;;
52124;SDS011;38119;52.710;6.398;2023-03-20T05:06:43;25.23;;;11.60;;
52124;SDS011;38119;52.710;6.398;2023-03-20T05:09:12;19.40;;;11.15;;
52124;SDS011;38119;52.710;6.398;2023-03-20T05:11:37;21.90;;;12.10;;
52124;SDS011;38119;52.710;6.398;2023-03-20T05:14:03;22.63;;;12.50;;
52124;SDS011;38119;52.710;6.398;2023-03-20T05:16:30;25.00;;;13.05;;
52124;SDS011;38119;52.710;6.398;2023-03-20T05:18:56;23.77;;;13.13;;
52124;SDS011;38119;52.710;6.398;2023-03-20T05:21:22;24.60;;;13.65;;
52124;SDS011;38119;52.710;6.398;2023-03-20T05:23:47;21.90;;;13.07;;
52124;SDS011;38119;52.710;6.398;2023-03-20T05:26:13;22.05;;;12.43;;
52124;SDS011;38119;52.710;6.398;2023-03-20T05:28:39;20.23;;;12.70;;
52124;SDS011;38119;52.710;6.398;2023-03-20T05:31:04;20.52;;;12.65;;
52124;SDS011;38119;52.710;6.398;2023-03-20T05:33:30;22.15;;;12.18;;
52124;SDS011;38119;52.710;6.398;2023-03-20T05:35:56;26.60;;;12.38;;
52124;SDS011;38119;52.710;6.398;2023-03-20T05:38:22;20.88;;;12.68;;
52124;SDS011;38119;52.710;6.398;2023-03-20T05:40:57;21.45;;;12.07;;
52124;SDS011;38119;52.710;6.398;2023-03-20T05:43:24;22.88;;;12.52;;
52124;SDS011;38119;52.710;6.398;2023-03-20T05:45:51;18.80;;;11.20;;
52124;SDS011;38119;52.710;6.398;2023-03-20T05:48:17;19.02;;;11.60;;
52124;SDS011;38119;52.710;6.398;2023-03-20T05:50:42;21.58;;;11.25;;
52124;SDS011;38119;52.710;6.398;2023-03-20T05:53:08;21.73;;;11.20;;
52124;SDS011;38119;52.710;6.398;2023-03-20T05:55:34;18.00;;;10.52;;
52124;SDS011;38119;52.710;6.398;2023-03-20T05:58:00;20.33;;;10.60;;
52124;SDS011;38119;52.710;6.398;2023-03-20T06:00:25;16.15;;;9.90;;
52124;SDS011;38119;52.710;6.398;2023-03-20T06:02:51;20.75;;;9.98;;
52124;SDS011;38119;52.710;6.398;2023-03-20T06:05:16;17.60;;;10.18;;
52124;SDS011;38119;52.710;6.398;2023-03-20T06:07:42;17.67;;;9.55;;
52124;SDS011;38119;52.710;6.398;2023-03-20T06:10:08;17.60;;;9.48;;
52124;SDS011;38119;52.710;6.398;2023-03-20T06:12:34;19.00;;;9.05;;
52124;SDS011;38119;52.710;6.398;2023-03-20T06:15:00;17.75;;;9.43;;
52124;SDS011;38119;52.710;6.398;2023-03-20T06:17:26;14.77;;;9.15;;
52124;SDS011;38119;52.710;6.398;2023-03-20T06:19:51;18.35;;;9.90;;
52124;SDS011;38119;52.710;6.398;2023-03-20T06:22:17;18.48;;;8.85;;
52124;SDS011;38119;52.710;6.398;2023-03-20T06:24:43;15.38;;;9.25;;
52124;SDS011;38119;52.710;6.398;2023-03-20T06:27:08;18.23;;;9.75;;
52124;SDS011;38119;52.710;6.398;2023-03-20T06:29:34;17.63;;;9.70;;
52124;SDS011;38119;52.710;6.398;2023-03-20T06:32:00;17.45;;;9.70;;
52124;SDS011;38119;52.710;6.398;2023-03-20T06:34:25;15.85;;;9.15;;
52124;SDS011;38119;52.710;6.398;2023-03-20T06:36:51;19.58;;;9.65;;
52124;SDS011;38119;52.710;6.398;2023-03-20T06:39:17;20.38;;;10.25;;
52124;SDS011;38119;52.710;6.398;2023-03-20T06:41:43;19.33;;;10.27;;
52124;SDS011;38119;52.710;6.398;2023-03-20T06:44:08;19.30;;;10.35;;
52124;SDS011;38119;52.710;6.398;2023-03-20T06:46:34;22.08;;;10.30;;
52124;SDS011;38119;52.710;6.398;2023-03-20T06:49:00;20.13;;;9.57;;
52124;SDS011;38119;52.710;6.398;2023-03-20T06:51:25;20.38;;;9.05;;
52124;SDS011;38119;52.710;6.398;2023-03-20T06:53:53;18.98;;;9.65;;
52124;SDS011;38119;52.710;6.398;2023-03-20T06:56:19;22.48;;;10.02;;
52124;SDS011;38119;52.710;6.398;2023-03-20T06:58:44;21.25;;;9.68;;
52124;SDS011;38119;52.710;6.398;2023-03-20T07:01:10;22.02;;;10.18;;
52124;SDS011;38119;52.710;6.398;2023-03-20T07:03:37;20.42;;;10.02;;
52124;SDS011;38119;52.710;6.398;2023-03-20T07:06:04;21.52;;;10.40;;
52124;SDS011;38119;52.710;6.398;2023-03-20T07:08:30;19.95;;;10.38;;
52124;SDS011;38119;52.710;6.398;2023-03-20T07:10:56;21.08;;;10.32;;
52124;SDS011;38119;52.710;6.398;2023-03-20T07:13:22;21.77;;;10.07;;
52124;SDS011;38119;52.710;6.398;2023-03-20T07:15:48;24.63;;;10.70;;
52124;SDS011;38119;52.710;6.398;2023-03-20T07:18:14;20.52;;;10.68;;
52124;SDS011;38119;52.710;6.398;2023-03-20T07:20:39;18.88;;;10.23;;
52124;SDS011;38119;52.710;6.398;2023-03-20T07:23:05;23.52;;;9.82;;
52124;SDS011;38119;52.710;6.398;2023-03-20T07:25:31;20.58;;;10.43;;
52124;SDS011;38119;52.710;6.398;2023-03-20T07:27:56;22.73;;;9.38;;
52124;SDS011;38119;52.710;6.398;2023-03-20T07:30:22;23.73;;;10.82;;
52124;SDS011;38119;52.710;6.398;2023-03-20T07:32:47;19.33;;;9.75;;
52124;SDS011;38119;52.710;6.398;2023-03-20T07:35:13;21.67;;;9.73;;
52124;SDS011;38119;52.710;6.398;2023-03-20T07:37:39;20.92;;;11.38;;
52124;SDS011;38119;52.710;6.398;2023-03-20T07:40:05;20.92;;;11.32;;
52124;SDS011;38119;52.710;6.398;2023-03-20T07:42:31;23.38;;;11.35;;
52124;SDS011;38119;52.710;6.398;2023-03-20T07:44:56;23.15;;;10.40;;
52124;SDS011;38119;52.710;6.398;2023-03-20T07:47:22;17.90;;;10.80;;
52124;SDS011;38119;52.710;6.398;2023-03-20T07:49:47;24.75;;;11.73;;
52124;SDS011;38119;52.710;6.398;2023-03-20T07:52:13;22.25;;;11.35;;
52124;SDS011;38119;52.710;6.398;2023-03-20T07:54:38;21.50;;;11.25;;
52124;SDS011;38119;52.710;6.398;2023-03-20T07:57:04;20.45;;;11.55;;
52124;SDS011;38119;52.710;6.398;2023-03-20T07:59:30;21.77;;;11.50;;
52124;SDS011;38119;52.710;6.398;2023-03-20T08:01:56;19.33;;;10.32;;
52124;SDS011;38119;52.710;6.398;2023-03-20T08:04:21;25.63;;;11.85;;
52124;SDS011;38119;52.710;6.398;2023-03-20T08:06:47;18.90;;;10.95;;
52124;SDS011;38119;52.710;6.398;2023-03-20T08:09:14;23.23;;;11.27;;
52124;SDS011;38119;52.710;6.398;2023-03-20T08:11:40;20.58;;;11.70;;
52124;SDS011;38119;52.710;6.398;2023-03-20T08:14:06;22.10;;;11.45;;
52124;SDS011;38119;52.710;6.398;2023-03-20T08:16:32;19.08;;;11.27;;
52124;SDS011;38119;52.710;6.398;2023-03-20T08:18:58;22.95;;;11.88;;
52124;SDS011;38119;52.710;6.398;2023-03-20T08:21:28;24.00;;;11.88;;
52124;SDS011;38119;52.710;6.398;2023-03-20T08:23:55;20.77;;;11.55;;
52124;SDS011;38119;52.710;6.398;2023-03-20T08:26:21;22.38;;;11.15;;
52124;SDS011;38119;52.710;6.398;2023-03-20T08:28:47;24.40;;;11.48;;
52124;SDS011;38119;52.710;6.398;2023-03-20T08:31:12;25.13;;;12.57;;
52124;SDS011;38119;52.710;6.398;2023-03-20T08:33:38;21.30;;;11.88;;
52124;SDS011;38119;52.710;6.398;2023-03-20T08:36:04;22.55;;;12.15;;
52124;SDS011;38119;52.710;6.398;2023-03-20T08:38:30;20.67;;;11.73;;
52124;SDS011;38119;52.710;6.398;2023-03-20T08:40:55;22.77;;;12.10;;
52124;SDS011;38119;52.710;6.398;2023-03-20T08:43:22;19.80;;;11.45;;
52124;SDS011;38119;52.710;6.398;2023-03-20T08:45:47;20.83;;;11.05;;
52124;SDS011;38119;52.710;6.398;2023-03-20T08:48:13;20.92;;;10.85;;
52124;SDS011;38119;52.710;6.398;2023-03-20T08:50:39;22.73;;;11.82;;
52124;SDS011;38119;52.710;6.398;2023-03-20T08:53:05;19.48;;;10.60;;
52124;SDS011;38119;52.710;6.398;2023-03-20T08:55:31;23.98;;;11.90;;
52124;SDS011;38119;52.710;6.398;2023-03-20T08:57:56;20.60;;;11.38;;
52124;SDS011;38119;52.710;6.398;2023-03-20T09:00:22;24.30;;;11.38;;
52124;SDS011;38119;52.710;6.398;2023-03-20T09:02:48;20.20;;;10.95;;
52124;SDS011;38119;52.710;6.398;2023-03-20T09:05:15;19.85;;;11.10;;
52124;SDS011;38119;52.710;6.398;2023-03-20T09:07:41;20.88;;;11.38;;
52124;SDS011;38119;52.710;6.398;2023-03-20T09:10:07;19.83;;;11.10;;
52124;SDS011;38119;52.710;6.398;2023-03-20T09:12:33;21.63;;;11.75;;
52124;SDS011;38119;52.710;6.398;2023-03-20T09:14:59;21.02;;;10.85;;
52124;SDS011;38119;52.710;6.398;2023-03-20T09:17:25;23.90;;;11.25;;
52124;SDS011;38119;52.710;6.398;2023-03-20T09:19:51;20.63;;;10.95;;
52124;SDS011;38119;52.710;6.398;2023-03-20T09:22:17;20.50;;;10.50;;
52124;SDS011;38119;52.710;6.398;2023-03-20T09:24:43;18.73;;;10.43;;
52124;SDS011;38119;52.710;6.398;2023-03-20T09:27:09;17.80;;;10.52;;
52124;SDS011;38119;52.710;6.398;2023-03-20T09:29:38;24.30;;;10.85;;
52124;SDS011;38119;52.710;6.398;2023-03-20T09:32:04;18.55;;;11.63;;
52124;SDS011;38119;52.710;6.398;2023-03-20T09:34:30;18.83;;;10.48;;
52124;SDS011;38119;52.710;6.398;2023-03-20T09:36:55;24.42;;;11.13;;
52124;SDS011;38119;52.710;6.398;2023-03-20T09:39:21;20.38;;;10.20;;
52124;SDS011;38119;52.710;6.398;2023-03-20T09:41:47;20.13;;;10.50;;
52124;SDS011;38119;52.710;6.398;2023-03-20T09:44:31;15.77;;;9.52;;
52124;SDS011;38119;52.710;6.398;2023-03-20T09:52:53;18.90;;;8.43;;
52124;SDS011;38119;52.710;6.398;2023-03-20T09:55:31;19.83;;;9.07;;
52124;SDS011;38119;52.710;6.398;2023-03-20T09:58:22;16.10;;;9.10;;
52124;SDS011;38119;52.710;6.398;2023-03-20T10:00:48;15.43;;;8.35;;
52124;SDS011;38119;52.710;6.398;2023-03-20T10:05:47;15.38;;;8.07;;
52124;SDS011;38119;52.710;6.398;2023-03-20T10:08:25;21.38;;;8.38;;
52124;SDS011;38119;52.710;6.398;2023-03-20T10:11:05;21.08;;;8.13;;
52124;SDS011;38119;52.710;6.398;2023-03-20T10:13:58;18.33;;;8.15;;
52124;SDS011;38119;52.710;6.398;2023-03-20T10:19:54;14.80;;;8.07;;
52124;SDS011;38119;52.710;6.398;2023-03-20T10:22:21;18.85;;;7.90;;
52124;SDS011;38119;52.710;6.398;2023-03-20T10:33:17;20.13;;;8.00;;
52124;SDS011;38119;52.710;6.398;2023-03-20T10:36:16;15.18;;;8.43;;
52124;SDS011;38119;52.710;6.398;2023-03-20T10:39:30;17.38;;;8.10;;
52124;SDS011;38119;52.710;6.398;2023-03-20T10:41:46;20.50;;;9.00;;
52124;SDS011;38119;52.710;6.398;2023-03-20T10:44:23;15.85;;;8.10;;
52124;SDS011;38119;52.710;6.398;2023-03-20T10:46:55;15.02;;;8.25;;
52124;SDS011;38119;52.710;6.398;2023-03-20T10:52:17;15.10;;;8.30;;
52124;SDS011;38119;52.710;6.398;2023-03-20T10:54:47;17.33;;;8.20;;
52124;SDS011;38119;52.710;6.398;2023-03-20T10:57:20;17.02;;;8.38;;
52124;SDS011;38119;52.710;6.398;2023-03-20T10:59:52;15.15;;;8.18;;
52124;SDS011;38119;52.710;6.398;2023-03-20T11:02:20;19.10;;;8.35;;
52124;SDS011;38119;52.710;6.398;2023-03-20T11:04:49;18.15;;;8.50;;
52124;SDS011;38119;52.710;6.398;2023-03-20T11:07:27;22.10;;;7.82;;
52124;SDS011;38119;52.710;6.398;2023-03-20T11:12:37;14.48;;;7.65;;
52124;SDS011;38119;52.710;6.398;2023-03-20T11:17:59;17.60;;;7.05;;
52124;SDS011;38119;52.710;6.398;2023-03-20T11:20:37;16.30;;;7.13;;
52124;SDS011;38119;52.710;6.398;2023-03-20T11:23:16;15.73;;;6.65;;
52124;SDS011;38119;52.710;6.398;2023-03-20T11:25:51;17.10;;;6.45;;
52124;SDS011;38119;52.710;6.398;2023-03-20T11:33:36;11.93;;;5.82;;
52124;SDS011;38119;52.710;6.398;2023-03-20T11:36:27;12.98;;;5.20;;
52124;SDS011;38119;52.710;6.398;2023-03-20T11:38:57;16.98;;;5.10;;
52124;SDS011;38119;52.710;6.398;2023-03-20T11:44:28;9.93;;;5.03;;
52124;SDS011;38119;52.710;6.398;2023-03-20T11:46:58;9.45;;;4.15;;
52124;SDS011;38119;52.710;6.398;2023-03-20T11:49:45;9.32;;;3.97;;
52124;SDS011;38119;52.710;6.398;2023-03-20T11:52:15;9.13;;;4.10;;
52124;SDS011;38119;52.710;6.398;2023-03-20T11:54:47;11.70;;;3.97;;
52124;SDS011;38119;52.710;6.398;2023-03-20T11:57:28;11.43;;;4.80;;
52124;SDS011;38119;52.710;6.398;2023-03-20T12:02:42;10.68;;;4.10;;
52124;SDS011;38119;52.710;6.398;2023-03-20T12:07:54;8.45;;;4.13;;
52124;SDS011;38119;52.710;6.398;2023-03-20T12:10:22;12.43;;;4.20;;
52124;SDS011;38119;52.710;6.398;2023-03-20T12:12:57;7.47;;;3.38;;
52124;SDS011;38119;52.710;6.398;2023-03-20T12:15:32;9.52;;;3.83;;
52124;SDS011;38119;52.710;6.398;2023-03-20T12:21:00;12.68;;;4.07;;
52124;SDS011;38119;52.710;6.398;2023-03-20T12:23:33;10.65;;;4.03;;
52124;SDS011;38119;52.710;6.398;2023-03-20T12:31:41;12.82;;;4.25;;
52124;SDS011;38119;52.710;6.398;2023-03-20T12:34:13;9.82;;;4.05;;
52124;SDS011;38119;52.710;6.398;2023-03-20T12:36:53;9.60;;;4.33;;
52124;SDS011;38119;52.710;6.398;2023-03-20T12:39:24;10.05;;;4.65;;
52124;SDS011;38119;52.710;6.398;2023-03-20T12:50:41;14.13;;;5.35;;
52124;SDS011;38119;52.710;6.398;2023-03-20T12:59:15;14.02;;;5.55;;
52124;SDS011;38119;52.710;6.398;2023-03-20T13:07:16;13.80;;;6.60;;
52124;SDS011;38119;52.710;6.398;2023-03-20T13:09:51;13.13;;;6.10;;
52124;SDS011;38119;52.710;6.398;2023-03-20T13:17:38;13.18;;;6.15;;
52124;SDS011;38119;52.710;6.398;2023-03-20T13:20:18;18.48;;;6.03;;
52124;SDS011;38119;52.710;6.398;2023-03-20T13:22:57;13.77;;;5.75;;
52124;SDS011;38119;52.710;6.398;2023-03-20T13:28:18;11.60;;;5.78;;
52124;SDS011;38119;52.710;6.398;2023-03-20T13:33:45;13.00;;;5.35;;
52124;SDS011;38119;52.710;6.398;2023-03-20T13:36:34;18.42;;;6.35;;
52124;SDS011;38119;52.710;6.398;2023-03-20T13:39:22;15.55;;;6.43;;
52124;SDS011;38119;52.710;6.398;2023-03-20T13:41:48;12.75;;;5.90;;
52124;SDS011;38119;52.710;6.398;2023-03-20T13:44:17;12.07;;;5.78;;
52124;SDS011;38119;52.710;6.398;2023-03-20T13:46:52;11.30;;;5.18;;
52124;SDS011;38119;52.710;6.398;2023-03-20T13:49:26;14.63;;;5.35;;
52124;SDS011;38119;52.710;6.398;2023-03-20T13:52:16;14.02;;;6.10;;
52124;SDS011;38119;52.710;6.398;2023-03-20T13:55:05;16.92;;;6.60;;
52124;SDS011;38119;52.710;6.398;2023-03-20T14:00:34;14.98;;;6.80;;
52124;SDS011;38119;52.710;6.398;2023-03-20T14:03:13;17.10;;;6.78;;
52124;SDS011;38119;52.710;6.398;2023-03-20T14:05:45;15.18;;;7.43;;
52124;SDS011;38119;52.710;6.398;2023-03-20T14:08:19;14.52;;;6.45;;
52124;SDS011;38119;52.710;6.398;2023-03-20T14:13:45;12.60;;;6.88;;
52124;SDS011;38119;52.710;6.398;2023-03-20T14:16:14;15.18;;;7.43;;
52124;SDS011;38119;52.710;6.398;2023-03-20T14:18:43;15.75;;;6.45;;
52124;SDS011;38119;52.710;6.398;2023-03-20T14:21:11;12.48;;;6.70;;
52124;SDS011;38119;52.710;6.398;2023-03-20T14:23:42;16.83;;;7.55;;
52124;SDS011;38119;52.710;6.398;2023-03-20T14:26:27;12.60;;;6.95;;
52124;SDS011;38119;52.710;6.398;2023-03-20T14:28:59;15.38;;;8.18;;
52124;SDS011;38119;52.710;6.398;2023-03-20T14:31:42;12.70;;;7.05;;
52124;SDS011;38119;52.710;6.398;2023-03-20T14:34:14;17.88;;;7.40;;
52124;SDS011;38119;52.710;6.398;2023-03-20T14:36:58;17.90;;;8.32;;
52124;SDS011;38119;52.710;6.398;2023-03-20T14:41:58;13.13;;;7.68;;
52124;SDS011;38119;52.710;6.398;2023-03-20T14:55:50;20.65;;;9.60;;
52124;SDS011;38119;52.710;6.398;2023-03-20T14:58:01;15.68;;;8.48;;
52124;SDS011;38119;52.710;6.398;2023-03-20T15:00:32;15.80;;;8.98;;
52124;SDS011;38119;52.710;6.398;2023-03-20T15:03:10;15.45;;;9.63;;
52124;SDS011;38119;52.710;6.398;2023-03-20T15:05:39;15.95;;;9.18;;
52124;SDS011;38119;52.710;6.398;2023-03-20T15:08:10;15.80;;;9.93;;
52124;SDS011;38119;52.710;6.398;2023-03-20T15:10:58;18.13;;;9.27;;
52124;SDS011;38119;52.710;6.398;2023-03-20T15:13:29;17.23;;;10.15;;
52124;SDS011;38119;52.710;6.398;2023-03-20T15:16:05;19.63;;;9.77;;
52124;SDS011;38119;52.710;6.398;2023-03-20T15:18:42;13.77;;;9.05;;
52124;SDS011;38119;52.710;6.398;2023-03-20T15:21:53;16.30;;;9.80;;
52124;SDS011;38119;52.710;6.398;2023-03-20T15:24:03;18.50;;;9.93;;
52124;SDS011;38119;52.710;6.398;2023-03-20T15:26:30;17.33;;;9.57;;
52124;SDS011;38119;52.710;6.398;2023-03-20T15:28:59;16.67;;;10.52;;
52124;SDS011;38119;52.710;6.398;2023-03-20T15:31:28;20.90;;;9.80;;
52124;SDS011;38119;52.710;6.398;2023-03-20T15:33:56;16.25;;;10.73;;
52124;SDS011;38119;52.710;6.398;2023-03-20T15:36:24;20.38;;;10.40;;
52124;SDS011;38119;52.710;6.398;2023-03-20T15:38:52;18.67;;;10.70;;
52124;SDS011;38119;52.710;6.398;2023-03-20T15:41:29;18.65;;;10.88;;
52124;SDS011;38119;52.710;6.398;2023-03-20T15:46:38;17.48;;;11.13;;
52124;SDS011;38119;52.710;6.398;2023-03-20T15:49:04;16.75;;;10.93;;
52124;SDS011;38119;52.710;6.398;2023-03-20T15:51:30;20.08;;;10.73;;
52124;SDS011;38119;52.710;6.398;2023-03-20T15:53:58;19.08;;;11.02;;
52124;SDS011;38119;52.710;6.398;2023-03-20T15:56:24;16.52;;;10.48;;
52124;SDS011;38119;52.710;6.398;2023-03-20T15:58:51;16.52;;;11.00;;
52124;SDS011;38119;52.710;6.398;2023-03-20T16:01:18;17.55;;;10.85;;
52124;SDS011;38119;52.710;6.398;2023-03-20T16:03:45;18.63;;;11.43;;
52124;SDS011;38119;52.710;6.398;2023-03-20T16:06:12;17.15;;;11.43;;
52124;SDS011;38119;52.710;6.398;2023-03-20T16:08:41;18.85;;;11.50;;
52124;SDS011;38119;52.710;6.398;2023-03-20T16:11:13;20.15;;;11.55;;
52124;SDS011;38119;52.710;6.398;2023-03-20T16:13:41;18.17;;;11.70;;
52124;SDS011;38119;52.710;6.398;2023-03-20T16:16:14;16.02;;;12.48;;
52124;SDS011;38119;52.710;6.398;2023-03-20T16:18:42;18.80;;;12.23;;
52124;SDS011;38119;52.710;6.398;2023-03-20T16:21:14;17.17;;;11.18;;
52124;SDS011;38119;52.710;6.398;2023-03-20T16:23:46;19.55;;;12.30;;
52124;SDS011;38119;52.710;6.398;2023-03-20T16:26:19;18.65;;;12.00;;
52124;SDS011;38119;52.710;6.398;2023-03-20T16:28:50;18.40;;;11.65;;
52124;SDS011;38119;52.710;6.398;2023-03-20T16:31:28;17.30;;;11.80;;
52124;SDS011;38119;52.710;6.398;2023-03-20T16:34:00;19.30;;;12.68;;
52124;SDS011;38119;52.710;6.398;2023-03-20T16:36:34;18.05;;;12.70;;
52124;SDS011;38119;52.710;6.398;2023-03-20T16:41:30;20.95;;;13.38;;
52124;SDS011;38119;52.710;6.398;2023-03-20T16:43:58;20.77;;;13.05;;
52124;SDS011;38119;52.710;6.398;2023-03-20T16:46:27;19.98;;;13.00;;
52124;SDS011;38119;52.710;6.398;2023-03-20T16:48:57;20.33;;;13.43;;
52124;SDS011;38119;52.710;6.398;2023-03-20T16:51:39;20.15;;;12.55;;
52124;SDS011;38119;52.710;6.398;2023-03-20T16:54:12;20.33;;;13.55;;
52124;SDS011;38119;52.710;6.398;2023-03-20T16:56:44;20.80;;;14.02;;
52124;SDS011;38119;52.710;6.398;2023-03-20T17:01:43;21.42;;;13.18;;
52124;SDS011;38119;52.710;6.398;2023-03-20T17:04:45;22.10;;;15.25;;
52124;SDS011;38119;52.710;6.398;2023-03-20T17:07:05;20.42;;;13.43;;
52124;SDS011;38119;52.710;6.398;2023-03-20T17:09:36;23.03;;;14.07;;